Enrique Olaya Herrera Airport

Airport
ICAO code: 
SKMD
IATA Code: 
EOH
Summary
ICAO Region: 
CARSAM
Territory: 
Location: 
Medellín, Antioquia Department
Serving: 
Medellín
Elevation: 
4940 ft
Coordinates: 
Aerial View: 
6° 13' 9.141" N, 75° 35' 16.071" W
Metar
Observation
SKMD 021300Z VRB02KT 9999 SCT020 SCT200 20/17 Q1022 RMK A3019
Station
Medellin / Olaya Herrera
Date/Time
2021-12-02 13:00:00
Wind speed
02 kts
Lowest cloud amount
scattered clouds
Temperature
20°C
Dew point
17°C
Humidity
82%
QNH
1022 hPa
Weather condition
n/a

Enrique Olaya Herrera Airport is an airport located in Medellín, Antioquia, Colombia, south-west of the city of Medellín, which serves regional and domestic flights in the country.

Climatology

Tropical rainforest climate (Köppen climate classification Af)

Runways

Designator Length Width Surface Rops
2/20 2500 38 ASP No/No
Airport map: 
Aerial View: 

SKYbrary Partners:

Safety knowledge contributed by: